createdAt,value
2022-11-04T00:00:00.772Z,10.8
2022-11-04T00:03:00.790Z,10.8
2022-11-04T00:06:00.784Z,10.8
2022-11-04T00:09:00.851Z,10.8
2022-11-04T00:12:00.830Z,10.8
2022-11-04T00:15:00.765Z,10.8
2022-11-04T00:18:00.792Z,10.8
2022-11-04T00:21:00.712Z,10.8
2022-11-04T00:24:00.798Z,10.8
2022-11-04T00:27:00.748Z,10.8
2022-11-04T00:30:00.848Z,10.8
2022-11-04T00:33:00.754Z,10.8
2022-11-04T00:36:00.764Z,10.8
2022-11-04T00:39:00.771Z,10.8
2022-11-04T00:42:00.796Z,10.8
2022-11-04T00:45:00.755Z,10.8
2022-11-04T00:48:00.739Z,10.8
2022-11-04T00:51:00.861Z,10.8
2022-11-04T00:54:00.751Z,10.8
2022-11-04T00:57:00.722Z,10.8
2022-11-04T01:00:00.731Z,10.8
2022-11-04T01:03:00.745Z,10.8
2022-11-04T01:06:00.748Z,10.8
2022-11-04T01:09:00.773Z,10.8
2022-11-04T01:12:00.769Z,10.8
2022-11-04T01:15:00.747Z,10.8
2022-11-04T01:18:00.752Z,10.8
2022-11-04T01:21:00.737Z,10.8
2022-11-04T01:24:00.746Z,10.8
2022-11-04T01:27:00.716Z,10.8
2022-11-04T01:30:00.783Z,10.8
2022-11-04T01:33:00.736Z,10.8
2022-11-04T01:36:00.797Z,10.8
2022-11-04T01:39:00.724Z,10.8
2022-11-04T01:42:00.830Z,10.8
2022-11-04T01:45:00.769Z,10.8
2022-11-04T01:48:00.795Z,10.8
2022-11-04T01:51:00.738Z,10.9
2022-11-04T01:54:00.762Z,10.9
2022-11-04T01:57:00.724Z,10.9
2022-11-04T02:00:00.774Z,10.9
2022-11-04T02:03:00.745Z,10.9
2022-11-04T02:06:00.764Z,10.9
2022-11-04T02:09:00.800Z,10.9
2022-11-04T02:12:00.736Z,10.9
2022-11-04T02:15:00.740Z,10.9
2022-11-04T02:18:00.841Z,10.9
2022-11-04T02:21:00.805Z,10.9
2022-11-04T02:24:00.821Z,10.9
2022-11-04T02:27:00.760Z,10.9
2022-11-04T02:30:00.743Z,10.9
2022-11-04T02:33:00.752Z,10.9
2022-11-04T02:36:00.932Z,11.4
2022-11-04T02:39:00.839Z,11.4
2022-11-04T02:42:00.770Z,11.4
2022-11-04T02:45:00.749Z,11.4
2022-11-04T02:48:00.768Z,11.5
2022-11-04T02:51:00.725Z,11.5
2022-11-04T02:54:00.759Z,11.5
2022-11-04T02:57:00.742Z,11.5
2022-11-04T03:00:00.797Z,11.5
2022-11-04T03:03:00.731Z,11.5
2022-11-04T03:06:00.758Z,11.5
2022-11-04T03:09:00.800Z,11.5
2022-11-04T03:12:00.735Z,11.5
2022-11-04T03:15:00.739Z,11.5
2022-11-04T03:18:00.768Z,11.5
2022-11-04T03:21:01.295Z,11.5
2022-11-04T03:24:00.747Z,11.5
2022-11-04T03:27:00.773Z,11.5
2022-11-04T03:30:00.917Z,11.5
2022-11-04T03:33:00.765Z,11.5
2022-11-04T03:36:00.745Z,11.5
2022-11-04T03:39:00.733Z,11.5
2022-11-04T03:42:00.697Z,11.5
2022-11-04T03:45:00.734Z,11.5
2022-11-04T03:48:00.755Z,11.5
2022-11-04T03:51:00.753Z,11.5
2022-11-04T03:54:00.771Z,11.5
2022-11-04T03:57:00.809Z,11.5
2022-11-04T04:00:00.789Z,11.5
2022-11-04T04:03:00.764Z,11.6
2022-11-04T04:06:00.765Z,11.6
2022-11-04T04:09:00.740Z,11.6
2022-11-04T04:12:00.813Z,11.6
2022-11-04T04:15:00.736Z,11.6
2022-11-04T04:18:00.745Z,11.6
2022-11-04T04:21:00.715Z,11.6
2022-11-04T04:24:00.774Z,11.6
2022-11-04T04:27:00.732Z,11.6
2022-11-04T04:30:00.791Z,11.6
2022-11-04T04:33:00.760Z,11.6
2022-11-04T04:36:00.714Z,11.6
2022-11-04T04:39:00.782Z,11.6
2022-11-04T04:42:00.802Z,11.6
2022-11-04T04:45:01.451Z,11.6
2022-11-04T04:48:00.837Z,11.6
2022-11-04T04:51:00.775Z,11.6
2022-11-04T04:54:00.761Z,11.6
2022-11-04T04:57:00.755Z,11.6
2022-11-04T05:00:00.927Z,11.6
2022-11-04T05:03:00.780Z,11.6
2022-11-04T05:06:00.767Z,11.6
2022-11-04T05:09:00.733Z,11.6
2022-11-04T05:12:00.777Z,11.4
2022-11-04T05:15:00.759Z,11.4
2022-11-04T05:18:00.786Z,11.4
2022-11-04T05:21:00.770Z,11.3
2022-11-04T05:24:00.796Z,11.3
2022-11-04T05:27:00.732Z,11.3
2022-11-04T05:30:00.818Z,11.3
2022-11-04T05:33:05.179Z,11.3
2022-11-04T05:36:00.745Z,11.3
2022-11-04T05:39:00.816Z,11.2
2022-11-04T05:42:00.762Z,11.2
2022-11-04T05:45:00.732Z,11.2
2022-11-04T05:48:00.786Z,11.2
2022-11-04T05:51:00.734Z,11.2
2022-11-04T05:54:00.797Z,11.2
2022-11-04T05:57:00.771Z,11.2
2022-11-04T06:00:00.824Z,11.2
2022-11-04T06:03:00.838Z,11.1
2022-11-04T06:06:00.813Z,11.1
2022-11-04T06:09:00.832Z,11.1
2022-11-04T06:12:00.796Z,11.1
2022-11-04T06:15:00.882Z,11
2022-11-04T06:18:00.741Z,11
2022-11-04T06:21:00.752Z,10.9
2022-11-04T06:24:00.849Z,10.9
2022-11-04T06:27:00.924Z,10.9
2022-11-04T06:30:01.161Z,10.9
2022-11-04T06:33:00.777Z,10.9
2022-11-04T06:36:00.895Z,10.8
2022-11-04T06:39:05.153Z,10.8
2022-11-04T06:42:03.089Z,10.8
2022-11-04T06:45:01.046Z,10.8
2022-11-04T06:48:00.758Z,10.8
2022-11-04T06:51:00.677Z,10.7
2022-11-04T06:54:00.774Z,10.7
2022-11-04T06:57:00.770Z,10.7
2022-11-04T07:00:01.477Z,10.7
2022-11-04T07:03:00.814Z,10.7
2022-11-04T07:06:00.962Z,10.7
2022-11-04T07:09:00.767Z,10.7
2022-11-04T07:12:00.870Z,10.7
2022-11-04T07:15:00.777Z,10.7
2022-11-04T07:18:00.907Z,10.7
2022-11-04T07:21:07.133Z,10.7
2022-11-04T07:24:00.806Z,10.7
2022-11-04T07:30:00.936Z,10.7
2022-11-04T07:33:00.845Z,10.8
2022-11-04T07:36:00.800Z,10.8
2022-11-04T07:39:00.773Z,10.8
2022-11-04T07:42:00.817Z,10.8
2022-11-04T07:45:00.850Z,10.8
2022-11-04T07:48:00.810Z,10.8
2022-11-04T07:51:00.901Z,10.8
2022-11-04T07:54:00.828Z,10.8
2022-11-04T07:57:00.847Z,10.8
2022-11-04T08:00:01.018Z,10.8
2022-11-04T08:03:01.668Z,10.8
2022-11-04T08:06:00.897Z,10.8
2022-11-04T08:09:01.311Z,10.8
2022-11-04T08:12:00.774Z,10.8
2022-11-04T08:15:00.852Z,10.8
2022-11-04T08:18:00.826Z,10.8
2022-11-04T08:21:00.848Z,10.8
2022-11-04T08:24:01.019Z,10.8
2022-11-04T08:27:00.877Z,10.8
2022-11-04T08:30:00.948Z,10.9
2022-11-04T08:33:01.025Z,10.9
2022-11-04T08:36:00.888Z,10.9
2022-11-04T08:39:10.148Z,10.9
2022-11-04T08:42:01.322Z,10.9
2022-11-04T08:45:00.993Z,10.9
2022-11-04T08:48:05.762Z,10.9
2022-11-04T08:51:01.949Z,11
2022-11-04T08:54:00.856Z,11
2022-11-04T08:57:00.857Z,11
2022-11-04T09:00:00.943Z,11
2022-11-04T09:03:00.987Z,11
2022-11-04T09:06:00.826Z,11
2022-11-04T09:09:01.525Z,11
2022-11-04T09:12:00.850Z,11.2
2022-11-04T09:15:00.859Z,11.2
2022-11-04T09:18:00.864Z,11.2
2022-11-04T09:21:00.753Z,11.2
2022-11-04T09:24:00.984Z,11.2
2022-11-04T09:27:00.823Z,11.4
2022-11-04T09:30:00.984Z,11.4
2022-11-04T09:33:00.845Z,11.4
2022-11-04T09:36:00.929Z,11.4
2022-11-04T09:39:00.788Z,11.4
2022-11-04T09:42:00.982Z,11.4
2022-11-04T09:45:22.365Z,11.5
2022-11-04T09:48:00.921Z,11.5
2022-11-04T09:51:00.775Z,11.5
2022-11-04T09:54:00.849Z,11.5
2022-11-04T09:57:00.852Z,11.5
2022-11-04T10:00:00.919Z,11.5
2022-11-04T10:03:00.864Z,11.5
2022-11-04T10:06:00.882Z,11.5
2022-11-04T10:09:00.811Z,11.5
2022-11-04T10:12:00.859Z,11.8
2022-11-04T10:15:00.821Z,11.8
2022-11-04T10:18:00.887Z,11.8
2022-11-04T10:21:00.773Z,11.8
2022-11-04T10:24:00.859Z,11.8
2022-11-04T10:27:01.357Z,11.8
2022-11-04T10:30:00.931Z,11.8
2022-11-04T10:33:00.843Z,11.8
2022-11-04T10:39:00.834Z,11.8
2022-11-04T10:42:00.796Z,11.8
2022-11-04T10:45:00.797Z,11.8
2022-11-04T10:48:00.887Z,11.8
2022-11-04T10:51:00.873Z,11.8
2022-11-04T10:54:00.864Z,11.8
2022-11-04T10:57:00.935Z,11.8
2022-11-04T11:00:00.929Z,11.8
2022-11-04T11:03:00.817Z,11.8
2022-11-04T11:06:00.827Z,11.8
2022-11-04T11:09:00.806Z,11.8
2022-11-04T11:12:00.830Z,11.8
2022-11-04T11:15:00.816Z,12.2
2022-11-04T11:18:00.792Z,12.2
2022-11-04T11:21:00.808Z,12.2
2022-11-04T11:24:00.935Z,12.2
2022-11-04T11:27:00.787Z,12.2
2022-11-04T11:30:00.869Z,12.2
2022-11-04T11:33:00.805Z,12.2
2022-11-04T11:36:00.802Z,12.2
2022-11-04T11:39:00.790Z,12.2
2022-11-04T11:42:01.050Z,12.2
2022-11-04T11:45:00.814Z,12.2
2022-11-04T11:48:01.028Z,12.2
2022-11-04T11:51:00.800Z,12.2
2022-11-04T11:54:00.892Z,12.2
2022-11-04T11:57:15.928Z,12.2
2022-11-04T12:03:01.264Z,12.2
2022-11-04T12:09:17.479Z,12.7
2022-11-04T12:12:00.874Z,12.7
2022-11-04T12:18:00.852Z,12.7
2022-11-04T12:21:00.756Z,12.7
2022-11-04T12:24:00.850Z,12.7
2022-11-04T12:27:00.934Z,12.7
2022-11-04T12:30:00.927Z,12.7
2022-11-04T12:33:00.801Z,12.7
2022-11-04T12:36:00.880Z,12.7
2022-11-04T12:39:00.843Z,12.7
2022-11-04T12:42:22.380Z,12.7
2022-11-04T12:45:00.824Z,12.8
2022-11-04T12:48:00.893Z,12.8
2022-11-04T12:51:00.887Z,12.8
2022-11-04T12:54:00.914Z,12.8
2022-11-04T12:57:00.832Z,12.8
2022-11-04T13:00:00.952Z,13
2022-11-04T13:06:01.029Z,13
2022-11-04T13:09:01.458Z,13
2022-11-04T13:12:01.654Z,13
2022-11-04T13:15:01.164Z,13
2022-11-04T13:18:00.949Z,13
2022-11-04T13:21:03.208Z,13
2022-11-04T13:24:01.044Z,13
2022-11-04T13:27:01.054Z,13
2022-11-04T13:30:01.037Z,13
2022-11-04T13:33:01.190Z,13
2022-11-04T13:36:01.085Z,13
2022-11-04T13:39:00.940Z,13
2022-11-04T13:42:01.297Z,13
2022-11-04T13:45:00.980Z,13
2022-11-04T13:48:01.055Z,13
2022-11-04T13:51:01.030Z,13
2022-11-04T13:54:01.141Z,13
2022-11-04T13:57:01.106Z,12.7
2022-11-04T14:00:01.029Z,12.6
2022-11-04T14:03:00.987Z,12.6
2022-11-04T14:06:01.077Z,12.6
2022-11-04T14:09:01.033Z,12.6
2022-11-04T14:12:00.993Z,12.6
2022-11-04T14:15:01.183Z,12.6
2022-11-04T14:18:00.968Z,12.6
2022-11-04T14:21:00.881Z,12.6
2022-11-04T14:24:00.943Z,12.6
2022-11-04T14:27:01.048Z,12.6
2022-11-04T14:30:01.215Z,12.6
2022-11-04T14:33:01.043Z,12.4
2022-11-04T14:36:01.066Z,12.4
2022-11-04T14:39:01.154Z,12.4
2022-11-04T14:42:01.176Z,12.4
2022-11-04T14:45:00.959Z,12.4
2022-11-04T14:48:00.965Z,12.4
2022-11-04T14:51:01.050Z,12.4
2022-11-04T14:54:01.133Z,12.4
2022-11-04T14:57:00.893Z,12.3
2022-11-04T15:00:01.265Z,12.3
2022-11-04T15:03:00.821Z,12.3
2022-11-04T15:06:01.017Z,12.3
2022-11-04T15:09:01.010Z,12.3
2022-11-04T15:12:01.080Z,12.3
2022-11-04T15:15:00.979Z,12.3
2022-11-04T15:18:01.074Z,12.3
2022-11-04T15:21:01.033Z,12.3
2022-11-04T15:24:01.214Z,12.3
2022-11-04T15:27:01.282Z,12.3
2022-11-04T15:30:01.168Z,12.3
2022-11-04T15:33:01.085Z,12.3
2022-11-04T15:36:00.944Z,12.3
2022-11-04T15:39:01.044Z,12.3
2022-11-04T15:42:01.028Z,12.3
2022-11-04T15:45:00.968Z,12.3
2022-11-04T15:48:00.836Z,12.3
2022-11-04T15:51:00.881Z,12.3
2022-11-04T15:54:00.855Z,12.3
2022-11-04T15:57:00.984Z,12.1
2022-11-04T16:00:01.016Z,12.1
2022-11-04T16:03:00.787Z,12.1
2022-11-04T16:06:00.888Z,12.1
2022-11-04T16:09:00.959Z,12.1
2022-11-04T16:12:00.923Z,12.1
2022-11-04T16:15:01.006Z,12.1
2022-11-04T16:18:00.908Z,12.1
2022-11-04T16:21:00.911Z,12.1
2022-11-04T16:24:00.969Z,12.1
2022-11-04T16:27:00.993Z,12.1
2022-11-04T16:30:01.017Z,11.7
2022-11-04T16:33:00.902Z,11.7
2022-11-04T16:36:00.919Z,11.7
2022-11-04T16:39:01.033Z,11.7
2022-11-04T16:42:00.991Z,11.7
2022-11-04T16:45:00.977Z,11.7
2022-11-04T16:48:00.903Z,11.7
2022-11-04T16:51:00.812Z,11.7
2022-11-04T16:54:00.911Z,11.7
2022-11-04T16:57:00.860Z,11.7
2022-11-04T17:00:00.953Z,11.7
2022-11-04T17:03:00.777Z,11.7
2022-11-04T17:06:00.924Z,11.7
2022-11-04T17:09:00.938Z,11.7
2022-11-04T17:12:00.912Z,11.5
2022-11-04T17:15:00.858Z,11.5
2022-11-04T17:18:00.894Z,11.5
2022-11-04T17:21:00.902Z,11.5
2022-11-04T17:24:00.956Z,11.5
2022-11-04T17:27:00.851Z,11.5
2022-11-04T17:30:00.882Z,11.5
2022-11-04T17:33:00.890Z,11.5
2022-11-04T17:36:07.896Z,11.5
2022-11-04T17:39:00.992Z,11.4
2022-11-04T17:42:00.907Z,11.3
2022-11-04T17:45:01.056Z,11.3
2022-11-04T17:48:00.899Z,11.3
2022-11-04T17:51:00.869Z,11.3
2022-11-04T17:54:00.896Z,11.3
2022-11-04T17:57:00.914Z,11.3
2022-11-04T18:00:00.959Z,11.3
2022-11-04T18:03:00.741Z,11.3
2022-11-04T18:06:00.866Z,11.3
2022-11-04T18:09:00.893Z,11.2
2022-11-04T18:12:01.027Z,11.2
2022-11-04T18:15:00.871Z,11.2
2022-11-04T18:18:00.867Z,11.2
2022-11-04T18:21:00.882Z,11.2
2022-11-04T18:24:00.856Z,11.2
2022-11-04T18:27:00.876Z,11.2
2022-11-04T18:30:00.949Z,11.2
2022-11-04T18:33:00.848Z,11.2
2022-11-04T18:36:00.913Z,11.2
2022-11-04T18:39:01.017Z,11.2
2022-11-04T18:42:01.039Z,11.2
2022-11-04T18:45:00.925Z,11.2
2022-11-04T18:48:00.890Z,11.2
2022-11-04T18:51:01.071Z,11.2
2022-11-04T18:54:00.967Z,11.2
2022-11-04T18:57:00.901Z,11.2
2022-11-04T19:00:01.082Z,11.2
2022-11-04T19:03:00.736Z,11.2
2022-11-04T19:06:01.103Z,11.2
2022-11-04T19:09:19.217Z,11.2
2022-11-04T19:12:01.076Z,11.2
2022-11-04T19:15:00.913Z,11.2
2022-11-04T19:18:00.860Z,11.2
2022-11-04T19:21:00.951Z,11.2
2022-11-04T19:24:01.045Z,11.1
2022-11-04T19:30:00.855Z,11.1
2022-11-04T19:33:00.774Z,11.1
2022-11-04T19:36:01.146Z,11.1
2022-11-04T19:39:00.787Z,11.1
2022-11-04T19:42:00.833Z,11.1
2022-11-04T19:45:00.788Z,11.1
2022-11-04T19:48:00.865Z,11.1
2022-11-04T19:51:00.715Z,11.1
2022-11-04T19:54:00.965Z,11
2022-11-04T19:57:00.758Z,11
2022-11-04T20:00:00.822Z,11
2022-11-04T20:03:00.763Z,11
2022-11-04T20:06:00.828Z,11
2022-11-04T20:09:00.805Z,11
2022-11-04T20:12:00.769Z,11
2022-11-04T20:15:00.725Z,11
2022-11-04T20:18:01.306Z,10.8
2022-11-04T20:21:00.719Z,10.8
2022-11-04T20:24:00.802Z,10.8
2022-11-04T20:27:00.760Z,10.8
2022-11-04T20:30:00.817Z,10.8
2022-11-04T20:33:00.766Z,10.7
2022-11-04T20:36:00.845Z,10.7
2022-11-04T20:39:00.721Z,10.7
2022-11-04T20:42:00.775Z,10.6
2022-11-04T20:45:00.759Z,10.6
2022-11-04T20:48:00.765Z,10.6
2022-11-04T20:51:00.713Z,10.6
2022-11-04T20:54:01.006Z,10.6
2022-11-04T20:57:00.758Z,10.6
2022-11-04T21:00:00.810Z,10.6
2022-11-04T21:03:00.750Z,10.6
2022-11-04T21:06:00.779Z,10.6
2022-11-04T21:09:00.724Z,10.5
2022-11-04T21:12:00.720Z,10.5
2022-11-04T21:15:00.785Z,10.5
2022-11-04T21:18:00.724Z,10.5
2022-11-04T21:21:01.446Z,10.5
2022-11-04T21:24:00.743Z,10.5
2022-11-04T21:27:00.799Z,10.3
2022-11-04T21:30:00.751Z,10.3
2022-11-04T21:33:00.777Z,10.3
2022-11-04T21:36:00.785Z,10.3
2022-11-04T21:39:00.719Z,10.3
2022-11-04T21:42:00.807Z,10.3
2022-11-04T21:45:01.019Z,10.3
2022-11-04T21:48:00.735Z,10.3
2022-11-04T21:51:00.737Z,10.3
2022-11-04T21:54:00.767Z,10.1
2022-11-04T21:57:00.773Z,10.1
2022-11-04T22:00:00.837Z,10.1
2022-11-04T22:03:00.770Z,10.1
2022-11-04T22:06:00.757Z,10.1
2022-11-04T22:09:00.786Z,10.1
2022-11-04T22:12:00.838Z,10.1
2022-11-04T22:15:00.718Z,9.9
2022-11-04T22:18:00.754Z,9.8
2022-11-04T22:21:00.710Z,9.8
2022-11-04T22:24:00.759Z,9.8
2022-11-04T22:27:00.734Z,9.8
2022-11-04T22:30:00.753Z,9.8
2022-11-04T22:33:00.744Z,9.8
2022-11-04T22:36:00.771Z,9.8
2022-11-04T22:39:00.763Z,9.8
2022-11-04T22:42:00.760Z,9.8
2022-11-04T22:45:00.725Z,9.8
2022-11-04T22:48:00.715Z,9.3
2022-11-04T22:51:00.726Z,9.3
2022-11-04T22:54:08.602Z,9.3
2022-11-04T22:57:00.734Z,9.3
2022-11-04T23:00:01.189Z,9.3
2022-11-04T23:03:01.120Z,9.3
2022-11-04T23:06:00.782Z,9.3
2022-11-04T23:09:01.405Z,9.3
2022-11-04T23:12:00.772Z,9.2
2022-11-04T23:15:00.778Z,9.2
2022-11-04T23:18:00.747Z,9.2
2022-11-04T23:21:00.719Z,9.2
2022-11-04T23:24:00.721Z,9.2
2022-11-04T23:27:00.750Z,9.2
2022-11-04T23:30:00.752Z,9.3
2022-11-04T23:33:00.716Z,9.3
2022-11-04T23:36:00.772Z,9.3
2022-11-04T23:39:00.712Z,9.3
2022-11-04T23:42:00.759Z,9.3
2022-11-04T23:45:00.722Z,9.3
2022-11-04T23:48:00.774Z,9.3
2022-11-04T23:51:00.753Z,9.3
2022-11-04T23:54:00.801Z,9.3
2022-11-04T23:57:00.778Z,9.3
